createdAt,value
2022-12-23T00:01:42.377Z,93.58
2022-12-23T00:04:10.017Z,94.06
2022-12-23T00:06:37.670Z,92.11
2022-12-23T00:09:06.619Z,94.60
2022-12-23T00:11:34.235Z,92.58
2022-12-23T00:14:21.799Z,92.45
2022-12-23T00:16:51.334Z,92.20
2022-12-23T00:19:19.131Z,91.21
2022-12-23T00:21:48.232Z,91.43
2022-12-23T00:24:17.329Z,90.65
2022-12-23T00:26:45.000Z,89.81
2022-12-23T00:29:12.568Z,89.94
2022-12-23T00:31:40.166Z,90.07
2022-12-23T00:34:07.778Z,92.03
2022-12-23T00:36:37.440Z,92.32
2022-12-23T00:39:22.799Z,92.05
2022-12-23T00:42:09.713Z,92.55
2022-12-23T00:44:37.314Z,92.52
2022-12-23T00:47:04.947Z,93.47
2022-12-23T00:49:43.924Z,93.10
2022-12-23T00:52:15.369Z,92.45
2022-12-23T00:54:43.941Z,92.24
2022-12-23T00:57:12.880Z,92.53
2022-12-23T00:59:40.622Z,92.45
2022-12-23T01:02:28.053Z,92.47
2022-12-23T01:05:13.277Z,92.69
2022-12-23T01:07:42.526Z,93.34
2022-12-23T01:10:10.887Z,93.53
2022-12-23T01:12:39.786Z,93.78
2022-12-23T01:15:08.688Z,93.35
2022-12-23T01:17:36.285Z,93.37
2022-12-23T01:20:04.315Z,93.47
2022-12-23T01:22:31.812Z,93.13
2022-12-23T01:24:59.408Z,93.26
2022-12-23T01:27:26.983Z,93.53
2022-12-23T01:29:55.843Z,92.35
2022-12-23T01:32:23.409Z,92.92
2022-12-23T01:34:51.038Z,93.61
2022-12-23T01:37:18.680Z,93.48
2022-12-23T01:39:46.285Z,93.12
2022-12-23T01:42:32.614Z,92.47
2022-12-23T01:45:03.000Z,92.39
2022-12-23T01:47:40.076Z,92.28
2022-12-23T01:50:13.635Z,92.16
2022-12-23T01:52:45.884Z,91.45
2022-12-23T01:55:18.016Z,91.19
2022-12-23T01:57:47.843Z,91.32
2022-12-23T02:00:35.146Z,91.59
2022-12-23T02:03:20.535Z,90.49
2022-12-23T02:05:49.308Z,91.00
2022-12-23T02:08:36.766Z,90.65
2022-12-23T02:11:23.927Z,90.30
2022-12-23T02:14:20.447Z,89.70
2022-12-23T02:16:55.921Z,89.76
2022-12-23T02:19:41.949Z,89.87
2022-12-23T02:22:32.519Z,89.86
2022-12-23T02:25:44.010Z,89.50
2022-12-23T02:28:32.843Z,88.96
2022-12-23T02:31:10.288Z,88.77
2022-12-23T02:33:50.223Z,88.93
2022-12-23T02:36:37.488Z,89.08
2022-12-23T02:39:10.266Z,89.07
2022-12-23T02:41:45.563Z,89.05
2022-12-23T02:44:21.952Z,88.70
2022-12-23T02:46:55.362Z,88.35
2022-12-23T02:49:27.537Z,88.90
2022-12-23T02:51:58.753Z,88.70
2022-12-23T02:54:31.157Z,89.08
2022-12-23T02:57:01.392Z,88.81
2022-12-23T02:59:33.163Z,88.63
2022-12-23T03:02:02.381Z,88.82
2022-12-23T03:04:30.012Z,88.62
2022-12-23T03:07:06.970Z,88.79
2022-12-23T03:09:47.962Z,89.10
2022-12-23T03:12:26.941Z,88.60
2022-12-23T03:15:14.025Z,88.17
2022-12-23T03:18:00.984Z,88.55
2022-12-23T03:20:35.734Z,88.52
2022-12-23T03:23:09.259Z,88.53
2022-12-23T03:25:41.503Z,88.76
2022-12-23T03:28:14.444Z,89.33
2022-12-23T03:30:47.461Z,89.19
2022-12-23T03:33:20.271Z,88.91
2022-12-23T03:35:52.930Z,88.90
2022-12-23T03:38:20.865Z,89.23
2022-12-23T03:40:53.011Z,89.07
2022-12-23T03:43:24.742Z,89.19
2022-12-23T03:45:58.752Z,88.80
2022-12-23T03:48:33.785Z,88.95
2022-12-23T03:51:05.585Z,88.82
2022-12-23T03:53:36.920Z,88.80
2022-12-23T03:56:08.700Z,88.35
2022-12-23T03:58:42.215Z,88.55
2022-12-23T04:01:18.268Z,88.91
2022-12-23T04:03:56.047Z,88.47
2022-12-23T04:06:27.494Z,88.43
2022-12-23T04:08:55.290Z,88.15
2022-12-23T04:11:22.885Z,88.46
2022-12-23T04:13:50.499Z,88.75
2022-12-23T04:16:18.307Z,88.68
2022-12-23T04:18:45.920Z,88.47
2022-12-23T04:21:14.923Z,87.95
2022-12-23T04:23:42.554Z,87.70
2022-12-23T04:26:10.126Z,87.88
2022-12-23T04:28:37.656Z,88.27
2022-12-23T04:31:05.679Z,88.16
2022-12-23T04:33:33.399Z,87.91
2022-12-23T04:36:01.536Z,87.86
2022-12-23T04:38:30.563Z,87.76
2022-12-23T04:40:58.218Z,87.75
2022-12-23T04:43:25.818Z,87.92
2022-12-23T04:45:53.680Z,87.75
2022-12-23T04:48:21.276Z,87.49
2022-12-23T04:50:48.905Z,87.33
2022-12-23T04:53:16.518Z,86.97
2022-12-23T04:55:45.439Z,87.00
2022-12-23T04:58:13.021Z,87.06
2022-12-23T05:00:40.629Z,87.16
2022-12-23T05:03:08.561Z,86.59
2022-12-23T05:05:36.312Z,86.89
2022-12-23T05:08:05.154Z,86.43
2022-12-23T05:10:32.963Z,86.57
2022-12-23T05:13:01.876Z,86.28
2022-12-23T05:15:29.507Z,86.34
2022-12-23T05:17:57.132Z,86.92
2022-12-23T05:20:26.512Z,86.75
2022-12-23T05:22:54.121Z,87.07
2022-12-23T05:25:21.753Z,86.82
2022-12-23T05:27:49.389Z,87.49
2022-12-23T05:30:18.620Z,87.53
2022-12-23T05:32:46.174Z,87.71
2022-12-23T05:35:13.723Z,87.77
2022-12-23T05:37:41.354Z,89.08
2022-12-23T05:40:10.465Z,88.74
2022-12-23T05:42:38.174Z,88.61
2022-12-23T05:45:06.391Z,88.74
2022-12-23T05:47:35.509Z,88.89
2022-12-23T05:50:03.146Z,89.10
2022-12-23T05:52:30.810Z,88.85
2022-12-23T05:54:58.378Z,89.37
2022-12-23T05:57:26.017Z,89.09
2022-12-23T05:59:53.642Z,89.24
2022-12-23T06:02:22.117Z,89.44
2022-12-23T06:04:51.303Z,89.31
2022-12-23T06:07:18.850Z,89.69
2022-12-23T06:09:46.384Z,90.74
2022-12-23T06:12:13.983Z,90.14
2022-12-23T06:14:41.643Z,90.19
2022-12-23T06:17:09.434Z,89.83
2022-12-23T06:19:37.057Z,89.69
2022-12-23T06:22:06.092Z,89.20
2022-12-23T06:24:33.739Z,89.03
2022-12-23T06:27:01.298Z,88.75
2022-12-23T06:29:29.315Z,88.33
2022-12-23T06:31:56.934Z,88.23
2022-12-23T06:34:24.723Z,88.19
2022-12-23T06:36:52.286Z,87.77
2022-12-23T06:39:21.279Z,87.89
2022-12-23T06:41:49.070Z,87.50
2022-12-23T06:44:16.650Z,87.59
2022-12-23T06:46:44.191Z,88.02
2022-12-23T06:49:13.653Z,87.79
2022-12-23T06:51:41.580Z,88.39
2022-12-23T06:54:11.108Z,87.60
2022-12-23T06:56:40.187Z,87.73
2022-12-23T06:59:07.839Z,88.03
2022-12-23T07:01:35.640Z,88.17
2022-12-23T07:04:03.673Z,88.29
2022-12-23T07:06:31.308Z,87.95
2022-12-23T07:08:58.940Z,87.65
2022-12-23T07:11:26.583Z,87.02
2022-12-23T07:13:55.492Z,87.20
2022-12-23T07:16:23.314Z,87.41
2022-12-23T07:18:50.979Z,86.46
2022-12-23T07:21:28.333Z,86.77
2022-12-23T07:23:56.917Z,86.27
2022-12-23T07:26:24.653Z,86.58
2022-12-23T07:28:52.205Z,86.57
2022-12-23T07:31:21.294Z,86.67
2022-12-23T07:33:48.988Z,86.57
2022-12-23T07:36:16.559Z,86.43
2022-12-23T07:38:44.228Z,86.76
2022-12-23T07:41:11.812Z,86.46
2022-12-23T07:43:40.051Z,86.63
2022-12-23T07:46:08.540Z,86.95
2022-12-23T07:48:37.554Z,85.75
2022-12-23T07:51:05.697Z,87.04
2022-12-23T07:53:33.264Z,85.60
2022-12-23T07:56:00.877Z,84.96
2022-12-23T07:58:28.660Z,86.11
2022-12-23T08:01:01.304Z,85.95
2022-12-23T08:03:29.282Z,85.50
2022-12-23T08:06:02.586Z,86.20
2022-12-23T08:08:30.754Z,86.65
2022-12-23T08:11:00.145Z,85.52
2022-12-23T08:13:27.842Z,85.46
2022-12-23T08:15:56.892Z,85.49
2022-12-23T08:18:24.924Z,85.27
2022-12-23T08:20:56.595Z,85.17
2022-12-23T08:23:26.285Z,85.09
2022-12-23T08:26:00.415Z,85.03
2022-12-23T08:28:28.508Z,85.11
2022-12-23T08:30:56.284Z,85.51
2022-12-23T08:33:23.981Z,85.70
2022-12-23T08:35:55.640Z,85.70
2022-12-23T08:38:23.254Z,84.91
2022-12-23T08:40:52.168Z,84.60
2022-12-23T08:43:20.556Z,85.97
2022-12-23T08:45:48.235Z,86.03
2022-12-23T08:48:16.013Z,85.98
2022-12-23T08:50:46.009Z,85.36
2022-12-23T08:53:14.674Z,83.60
2022-12-23T08:55:44.001Z,83.76
2022-12-23T08:58:14.497Z,83.95
2022-12-23T09:00:42.471Z,84.11
2022-12-23T09:03:10.071Z,85.35
2022-12-23T09:05:41.528Z,85.24
2022-12-23T09:08:09.694Z,84.98
2022-12-23T09:10:42.301Z,85.17
2022-12-23T09:13:10.422Z,85.04
2022-12-23T09:15:43.236Z,84.57
2022-12-23T09:18:11.319Z,85.11
2022-12-23T09:20:39.847Z,86.34
2022-12-23T09:23:07.980Z,84.16
2022-12-23T09:25:36.903Z,83.88
2022-12-23T09:28:05.386Z,84.02
2022-12-23T09:30:33.677Z,85.08
2022-12-23T09:33:02.567Z,84.15
2022-12-23T09:35:30.335Z,84.47
2022-12-23T09:37:57.887Z,84.56
2022-12-23T09:40:25.799Z,84.88
2022-12-23T09:43:07.516Z,84.68
2022-12-23T09:45:51.409Z,84.92
2022-12-23T09:48:26.597Z,85.20
2022-12-23T09:50:54.981Z,84.35
2022-12-23T09:53:24.669Z,84.91
2022-12-23T09:55:57.641Z,85.10
2022-12-23T09:58:30.869Z,84.75
2022-12-23T10:01:10.974Z,86.07
2022-12-23T10:04:00.215Z,83.97
2022-12-23T10:06:30.064Z,84.28
2022-12-23T10:09:02.198Z,83.56
2022-12-23T10:11:37.909Z,86.42
2022-12-23T10:14:18.109Z,84.71
2022-12-23T10:16:50.219Z,85.43
2022-12-23T10:19:26.183Z,84.34
2022-12-23T10:21:59.638Z,85.39
2022-12-23T10:24:32.470Z,83.99
2022-12-23T10:27:04.120Z,84.92
2022-12-23T10:29:33.122Z,85.04
2022-12-23T10:32:13.806Z,84.75
2022-12-23T10:34:52.527Z,84.80
2022-12-23T10:37:28.907Z,84.10
2022-12-23T10:40:11.073Z,84.62
2022-12-23T10:42:43.970Z,84.49
2022-12-23T10:45:24.161Z,83.83
2022-12-23T10:48:06.096Z,84.87
2022-12-23T10:50:50.565Z,85.28
2022-12-23T10:53:28.935Z,85.17
2022-12-23T10:55:57.139Z,85.75
2022-12-23T10:58:26.469Z,85.48
2022-12-23T11:00:57.073Z,85.63
2022-12-23T11:03:29.808Z,86.65
2022-12-23T11:06:00.393Z,86.58
2022-12-23T11:08:31.543Z,86.21
2022-12-23T11:11:01.173Z,87.24
2022-12-23T11:13:36.907Z,87.17
2022-12-23T11:16:24.973Z,87.78
2022-12-23T11:19:04.255Z,89.03
2022-12-23T11:21:34.775Z,89.89
2022-12-23T11:24:19.873Z,89.95
2022-12-23T11:26:50.583Z,90.67
2022-12-23T11:29:24.309Z,90.41
2022-12-23T11:31:52.686Z,90.46
2022-12-23T11:34:22.209Z,90.60
2022-12-23T11:37:00.155Z,91.10
2022-12-23T11:39:33.894Z,91.72
2022-12-23T11:42:12.145Z,90.79
2022-12-23T11:44:43.546Z,90.68
2022-12-23T11:47:26.517Z,90.69
2022-12-23T11:49:55.924Z,90.15
2022-12-23T11:52:26.836Z,90.36
2022-12-23T11:54:56.943Z,91.96
2022-12-23T11:57:30.901Z,90.23
2022-12-23T12:00:02.817Z,89.75
2022-12-23T12:02:36.512Z,90.21
2022-12-23T12:05:14.923Z,90.61
2022-12-23T12:07:44.791Z,90.77
2022-12-23T12:10:19.237Z,90.13
2022-12-23T12:12:52.898Z,90.34
2022-12-23T12:15:34.923Z,90.60
2022-12-23T12:18:05.492Z,89.37
2022-12-23T12:20:38.089Z,89.65
2022-12-23T12:23:11.403Z,89.59
2022-12-23T12:25:44.193Z,91.34
2022-12-23T12:28:15.943Z,91.17
2022-12-23T12:30:50.567Z,91.13
2022-12-23T12:33:24.302Z,91.16
2022-12-23T12:36:04.908Z,90.72
2022-12-23T12:38:39.104Z,91.00
2022-12-23T12:41:15.551Z,91.08
2022-12-23T12:43:49.476Z,91.37
2022-12-23T12:46:27.927Z,90.94
2022-12-23T12:49:00.757Z,91.14
2022-12-23T12:51:32.521Z,91.62
2022-12-23T12:54:06.480Z,92.03
2022-12-23T12:56:41.374Z,92.17
2022-12-23T12:59:17.539Z,91.91
2022-12-23T13:01:54.465Z,90.69
2022-12-23T13:04:44.338Z,91.10
2022-12-23T13:07:24.848Z,90.25
2022-12-23T13:10:02.287Z,90.69
2022-12-23T13:12:45.945Z,90.25
2022-12-23T13:15:22.853Z,89.70
2022-12-23T13:18:09.191Z,91.25
2022-12-23T13:20:43.534Z,90.97
2022-12-23T13:23:42.952Z,90.52
2022-12-23T13:26:21.862Z,88.24
2022-12-23T13:29:01.239Z,90.42
2022-12-23T13:31:40.549Z,90.68
2022-12-23T13:34:21.952Z,90.10
2022-12-23T13:36:58.388Z,89.84
2022-12-23T13:39:42.737Z,89.82
2022-12-23T13:42:19.024Z,90.38
2022-12-23T13:44:47.061Z,89.79
2022-12-23T13:47:20.160Z,88.87
2022-12-23T13:49:58.849Z,89.65
2022-12-23T13:52:39.496Z,88.52
2022-12-23T13:55:21.806Z,88.75
2022-12-23T13:57:59.818Z,88.13
2022-12-23T14:00:31.234Z,88.79
2022-12-23T14:03:17.898Z,89.07
2022-12-23T14:05:46.951Z,88.92
2022-12-23T14:08:28.259Z,89.51
2022-12-23T14:10:59.867Z,89.42
2022-12-23T14:13:32.474Z,89.45
2022-12-23T14:16:27.614Z,89.36
2022-12-23T14:19:15.168Z,89.36
2022-12-23T14:21:51.925Z,89.10
2022-12-23T14:24:44.988Z,88.92
2022-12-23T14:27:36.341Z,89.19
2022-12-23T14:30:14.193Z,88.67
2022-12-23T14:32:49.058Z,89.21
2022-12-23T14:35:26.456Z,89.12
2022-12-23T14:38:23.064Z,88.93
2022-12-23T14:40:55.652Z,88.80
2022-12-23T14:43:43.072Z,88.86
2022-12-23T14:46:59.412Z,89.00
2022-12-23T14:49:40.717Z,88.80
2022-12-23T14:52:47.782Z,88.70
2022-12-23T14:55:54.216Z,87.92
2022-12-23T14:58:35.223Z,87.32
2022-12-23T15:01:08.985Z,87.69
2022-12-23T15:03:45.689Z,87.54
2022-12-23T15:06:18.849Z,87.26
2022-12-23T15:08:48.639Z,87.04
2022-12-23T15:11:23.097Z,87.09
2022-12-23T15:13:53.808Z,86.95
2022-12-23T15:16:30.638Z,86.51
2022-12-23T15:19:02.187Z,86.25
2022-12-23T15:21:32.318Z,86.55
2022-12-23T15:23:59.900Z,85.47
2022-12-23T15:26:30.108Z,86.37
2022-12-23T15:28:59.192Z,86.87
2022-12-23T15:31:30.233Z,87.51
2022-12-23T15:34:04.605Z,88.40
2022-12-23T15:36:37.072Z,88.69
2022-12-23T15:39:10.698Z,88.97
2022-12-23T15:41:45.334Z,89.48
2022-12-23T15:44:16.406Z,89.23
2022-12-23T15:46:44.151Z,88.80
2022-12-23T15:49:13.568Z,88.91
2022-12-23T15:54:36.656Z,89.32
2022-12-23T15:57:05.622Z,88.30
2022-12-23T15:59:37.429Z,87.66
2022-12-23T16:02:32.640Z,87.35
2022-12-23T16:05:03.333Z,87.15
2022-12-23T16:07:35.298Z,86.93
2022-12-23T16:10:06.096Z,87.33
2022-12-23T16:12:35.705Z,86.90
2022-12-23T16:15:04.548Z,86.77
2022-12-23T16:17:33.731Z,85.75
2022-12-23T16:20:26.829Z,85.90
2022-12-23T16:22:57.670Z,86.06
2022-12-23T16:25:27.831Z,86.66
2022-12-23T16:27:57.819Z,86.78
2022-12-23T16:30:31.608Z,87.12
2022-12-23T16:33:02.707Z,87.21
2022-12-23T16:35:36.036Z,86.24
2022-12-23T16:38:15.882Z,86.41
2022-12-23T16:40:44.542Z,85.22
2022-12-23T16:43:12.512Z,85.26
2022-12-23T16:45:40.878Z,84.74
2022-12-23T16:48:12.289Z,84.01
2022-12-23T16:50:41.216Z,83.35
2022-12-23T16:53:12.761Z,83.59
2022-12-23T16:55:46.180Z,83.72
2022-12-23T16:58:17.935Z,84.10
2022-12-23T17:00:45.988Z,84.00
2022-12-23T17:03:17.673Z,83.55
2022-12-23T17:05:47.428Z,83.74
2022-12-23T17:08:15.307Z,83.47
2022-12-23T17:10:44.640Z,83.49
2022-12-23T17:13:14.040Z,83.80
2022-12-23T17:15:41.606Z,83.20
2022-12-23T17:18:13.969Z,82.89
2022-12-23T17:20:42.283Z,82.54
2022-12-23T17:23:26.564Z,82.13
2022-12-23T17:25:54.311Z,82.53
2022-12-23T17:28:22.067Z,82.02
2022-12-23T17:30:53.180Z,82.50
2022-12-23T17:33:20.897Z,82.07
2022-12-23T17:35:48.672Z,82.06
2022-12-23T17:38:17.771Z,81.98
2022-12-23T17:40:47.754Z,81.35
2022-12-23T17:43:16.758Z,81.49
2022-12-23T17:45:45.467Z,80.92
2022-12-23T17:48:20.581Z,80.86
2022-12-23T17:50:50.080Z,80.78
2022-12-23T17:53:20.744Z,80.43
2022-12-23T17:55:48.552Z,80.60
2022-12-23T17:58:16.513Z,80.82
2022-12-23T18:00:44.241Z,80.91
2022-12-23T18:03:22.287Z,80.95
2022-12-23T18:05:52.994Z,81.32
2022-12-23T18:08:26.346Z,81.81
2022-12-23T18:10:53.917Z,81.84
2022-12-23T18:13:22.327Z,81.83
2022-12-23T18:15:51.096Z,82.10
2022-12-23T18:18:27.230Z,83.13
2022-12-23T18:20:57.960Z,83.74
2022-12-23T18:23:29.153Z,83.25
2022-12-23T18:25:58.076Z,83.30
2022-12-23T18:28:26.189Z,83.90
2022-12-23T18:30:56.551Z,84.24
2022-12-23T18:33:28.589Z,84.59
2022-12-23T18:35:56.516Z,84.05
2022-12-23T18:38:24.211Z,84.08
2022-12-23T18:40:54.427Z,84.30
2022-12-23T18:43:24.651Z,84.75
2022-12-23T18:45:54.139Z,84.86
2022-12-23T18:48:22.501Z,85.52
2022-12-23T18:50:50.170Z,86.03
2022-12-23T18:53:23.773Z,86.42
2022-12-23T18:55:53.659Z,86.39
2022-12-23T18:58:22.331Z,86.40
2022-12-23T19:00:52.536Z,86.30
2022-12-23T19:03:23.741Z,86.15
2022-12-23T19:05:52.285Z,85.57
2022-12-23T19:08:26.284Z,84.97
2022-12-23T19:10:56.256Z,85.38
2022-12-23T19:13:24.276Z,85.14
2022-12-23T19:15:52.551Z,84.86
2022-12-23T19:18:22.647Z,84.41
2022-12-23T19:20:50.628Z,84.23
2022-12-23T19:23:18.733Z,84.53
2022-12-23T19:25:54.422Z,84.56
2022-12-23T19:28:24.626Z,84.65
2022-12-23T19:30:52.546Z,85.01
2022-12-23T19:33:20.410Z,85.90
2022-12-23T19:35:48.325Z,86.43
2022-12-23T19:38:16.375Z,87.25
2022-12-23T19:40:44.080Z,87.23
2022-12-23T19:43:11.825Z,87.30
2022-12-23T19:45:41.113Z,87.85
2022-12-23T19:48:09.605Z,87.20
2022-12-23T19:50:37.246Z,87.67
2022-12-23T19:53:04.929Z,86.99
2022-12-23T19:55:32.588Z,87.03
2022-12-23T19:58:00.260Z,86.60
2022-12-23T20:00:27.933Z,86.27
2022-12-23T20:02:59.049Z,86.23
2022-12-23T20:05:27.072Z,86.40
2022-12-23T20:07:54.952Z,86.18
2022-12-23T20:10:22.711Z,86.61
2022-12-23T20:12:50.355Z,86.40
2022-12-23T20:15:18.947Z,86.35
2022-12-23T20:17:46.682Z,86.95
2022-12-23T20:20:15.914Z,86.13
2022-12-23T20:22:43.630Z,86.29
2022-12-23T20:25:11.523Z,86.80
2022-12-23T20:27:39.754Z,85.69
2022-12-23T20:30:08.779Z,85.60
2022-12-23T20:32:36.402Z,85.62
2022-12-23T20:35:04.443Z,84.93
2022-12-23T20:37:33.646Z,85.01
2022-12-23T20:40:01.382Z,84.80
2022-12-23T20:42:29.139Z,83.95
2022-12-23T20:44:56.873Z,84.41
2022-12-23T20:47:24.485Z,83.30
2022-12-23T20:49:52.258Z,83.36
2022-12-23T20:52:20.142Z,83.35
2022-12-23T20:54:49.190Z,83.72
2022-12-23T20:57:16.888Z,83.65
2022-12-23T20:59:44.671Z,83.12
2022-12-23T21:02:14.234Z,83.45
2022-12-23T21:04:41.874Z,82.83
2022-12-23T21:07:09.698Z,82.12
2022-12-23T21:09:37.693Z,82.49
2022-12-23T21:12:07.078Z,82.78
2022-12-23T21:14:35.022Z,82.22
2022-12-23T21:17:02.623Z,82.36
2022-12-23T21:19:30.194Z,82.26
2022-12-23T21:21:58.032Z,82.45
2022-12-23T21:24:25.727Z,82.54
2022-12-23T21:26:56.817Z,82.13
2022-12-23T21:29:26.777Z,81.92
2022-12-23T21:31:54.973Z,80.90
2022-12-23T21:34:22.922Z,80.46
2022-12-23T21:36:50.534Z,80.50
2022-12-23T21:39:18.222Z,80.35
2022-12-23T21:41:45.795Z,80.03
2022-12-23T21:44:14.622Z,79.73
2022-12-23T21:46:43.639Z,79.61
2022-12-23T21:49:11.887Z,79.61
2022-12-23T21:51:41.311Z,80.17
2022-12-23T21:54:11.206Z,79.97
2022-12-23T21:56:39.999Z,80.25
2022-12-23T21:59:13.230Z,80.58
2022-12-23T22:01:41.595Z,80.81
2022-12-23T22:04:10.614Z,81.07
2022-12-23T22:06:43.388Z,80.71
2022-12-23T22:09:13.734Z,80.77
2022-12-23T22:11:41.333Z,80.85
2022-12-23T22:14:11.652Z,80.63
2022-12-23T22:16:39.253Z,80.18
2022-12-23T22:19:08.561Z,80.97
2022-12-23T22:21:39.386Z,80.54
2022-12-23T22:24:07.975Z,80.73
2022-12-23T22:26:36.369Z,80.69
2022-12-23T22:29:05.901Z,81.12
2022-12-23T22:31:37.704Z,80.99
2022-12-23T22:34:06.315Z,80.47
2022-12-23T22:36:34.439Z,80.84
2022-12-23T22:39:03.886Z,80.85
2022-12-23T22:41:31.691Z,81.17
2022-12-23T22:44:00.113Z,81.25
2022-12-23T22:46:28.860Z,81.42
2022-12-23T22:48:56.845Z,81.73
2022-12-23T22:51:27.300Z,81.51
2022-12-23T22:53:55.645Z,81.46
2022-12-23T22:56:26.102Z,82.15
2022-12-23T22:58:54.697Z,81.93
2022-12-23T23:01:24.159Z,81.91
2022-12-23T23:03:57.015Z,81.85
2022-12-23T23:06:25.998Z,82.04
2022-12-23T23:08:54.356Z,81.80
2022-12-23T23:11:23.759Z,82.16
2022-12-23T23:13:51.464Z,82.43
2022-12-23T23:16:19.151Z,82.69
2022-12-23T23:18:46.998Z,81.92
2022-12-23T23:21:15.731Z,81.79
2022-12-23T23:23:43.666Z,81.34
2022-12-23T23:26:12.309Z,81.39
2022-12-23T23:28:41.930Z,81.04
2022-12-23T23:31:40.473Z,81.41
2022-12-23T23:33:58.819Z,80.73
2022-12-23T23:36:26.630Z,81.03
2022-12-23T23:38:54.354Z,80.74
2022-12-23T23:41:23.849Z,81.33
2022-12-23T23:43:53.261Z,80.21
2022-12-23T23:46:20.929Z,78.94
2022-12-23T23:48:48.631Z,77.85
2022-12-23T23:51:16.478Z,77.79
2022-12-23T23:53:44.031Z,77.87
2022-12-23T23:56:11.766Z,77.79
2022-12-23T23:58:39.401Z,78.20
